createdAt,value
2023-04-29T00:02:03.571Z,77.00
2023-04-29T00:04:30.219Z,76.90
2023-04-29T00:06:56.916Z,77.10
2023-04-29T00:09:23.412Z,77.20
2023-04-29T00:11:49.908Z,77.00
2023-04-29T00:14:16.416Z,76.80
2023-04-29T00:16:42.933Z,77.00
2023-04-29T00:19:09.442Z,76.30
2023-04-29T00:21:35.922Z,76.30
2023-04-29T00:24:02.408Z,76.10
2023-04-29T00:26:28.880Z,76.50
2023-04-29T00:28:55.350Z,76.70
2023-04-29T00:31:21.934Z,76.80
2023-04-29T00:33:48.487Z,77.40
2023-04-29T00:36:14.963Z,76.50
2023-04-29T00:38:41.457Z,76.70
2023-04-29T00:41:07.921Z,76.80
2023-04-29T00:43:34.414Z,76.60
2023-04-29T00:46:00.926Z,76.80
2023-04-29T00:48:27.464Z,76.20
2023-04-29T00:50:53.926Z,76.60
2023-04-29T00:53:20.407Z,76.50
2023-04-29T00:55:46.877Z,76.60
2023-04-29T00:58:13.345Z,76.70
2023-04-29T01:00:39.863Z,76.10
2023-04-29T01:03:06.468Z,76.10
2023-04-29T01:05:33.036Z,76.70
2023-04-29T01:07:59.544Z,76.80
2023-04-29T01:10:26.023Z,76.70
2023-04-29T01:12:52.512Z,76.40
2023-04-29T01:15:18.998Z,76.70
2023-04-29T01:17:45.547Z,76.80
2023-04-29T01:20:12.068Z,76.90
2023-04-29T01:22:38.591Z,76.50
2023-04-29T01:25:05.059Z,76.30
2023-04-29T01:27:31.531Z,76.70
2023-04-29T01:29:58.047Z,76.80
2023-04-29T01:32:24.515Z,76.50
2023-04-29T01:34:50.989Z,76.30
2023-04-29T01:37:17.474Z,76.20
2023-04-29T01:39:43.941Z,76.00
2023-04-29T01:42:10.421Z,76.00
2023-04-29T01:44:36.906Z,76.10
2023-04-29T01:47:03.449Z,76.40
2023-04-29T01:49:29.983Z,76.20
2023-04-29T01:51:56.463Z,75.90
2023-04-29T01:54:22.928Z,76.00
2023-04-29T01:56:49.391Z,76.10
2023-04-29T01:59:15.867Z,76.00
2023-04-29T02:01:42.346Z,75.60
2023-04-29T02:04:08.897Z,75.40
2023-04-29T02:06:35.410Z,75.70
2023-04-29T02:09:01.923Z,76.00
2023-04-29T02:11:28.418Z,76.20
2023-04-29T02:13:54.906Z,76.00
2023-04-29T02:16:21.410Z,76.30
2023-04-29T02:18:47.926Z,76.10
2023-04-29T02:21:14.388Z,76.10
2023-04-29T02:23:40.888Z,76.00
2023-04-29T02:26:07.386Z,75.60
2023-04-29T02:28:33.891Z,75.60
2023-04-29T02:31:00.351Z,75.60
2023-04-29T02:33:26.865Z,75.50
2023-04-29T02:35:53.350Z,75.70
2023-04-29T02:38:19.883Z,75.40
2023-04-29T02:40:46.399Z,75.10
2023-04-29T02:43:12.923Z,75.20
2023-04-29T02:45:39.441Z,75.30
2023-04-29T02:48:05.927Z,75.30
2023-04-29T02:50:32.476Z,75.30
2023-04-29T02:52:58.956Z,75.50
2023-04-29T02:55:25.429Z,75.50
2023-04-29T02:57:51.912Z,75.30
2023-04-29T03:00:18.384Z,75.50
2023-04-29T03:02:44.925Z,75.30
2023-04-29T03:05:11.471Z,75.40
2023-04-29T03:07:37.933Z,75.10
2023-04-29T03:10:04.414Z,75.00
2023-04-29T03:12:30.902Z,75.30
2023-04-29T03:14:57.408Z,75.40
2023-04-29T03:17:23.893Z,75.40
2023-04-29T03:19:50.458Z,75.30
2023-04-29T03:22:16.985Z,75.20
2023-04-29T03:24:43.468Z,75.10
2023-04-29T03:27:09.934Z,74.90
2023-04-29T03:29:36.439Z,74.80
2023-04-29T03:32:02.936Z,74.90
2023-04-29T03:34:29.450Z,75.10
2023-04-29T03:36:55.927Z,74.80
2023-04-29T03:39:22.463Z,75.00
2023-04-29T03:41:48.943Z,75.10
2023-04-29T03:44:15.459Z,75.20
2023-04-29T03:46:42.029Z,75.20
2023-04-29T03:49:08.536Z,75.20
2023-04-29T03:51:35.029Z,75.00
2023-04-29T03:54:01.492Z,74.90
2023-04-29T03:56:27.965Z,74.90
2023-04-29T03:58:54.449Z,74.90
2023-04-29T04:01:20.925Z,75.10
2023-04-29T04:03:47.503Z,74.80
2023-04-29T04:06:16.346Z,74.60
2023-04-29T04:08:42.820Z,75.00
2023-04-29T04:11:09.316Z,74.80
2023-04-29T04:13:35.789Z,74.80
2023-04-29T04:16:02.328Z,75.00
2023-04-29T04:18:28.825Z,74.80
2023-04-29T04:20:55.310Z,74.70
2023-04-29T04:23:21.787Z,74.90
2023-04-29T04:25:48.271Z,75.10
2023-04-29T04:28:14.747Z,74.80
2023-04-29T04:30:41.242Z,74.60
2023-04-29T04:33:07.750Z,74.60
2023-04-29T04:35:34.284Z,74.50
2023-04-29T04:38:00.739Z,74.50
2023-04-29T04:40:27.242Z,74.60
2023-04-29T04:42:55.138Z,74.60
2023-04-29T04:45:21.807Z,74.50
2023-04-29T04:47:48.366Z,74.60
2023-04-29T04:50:14.870Z,74.80
2023-04-29T04:52:41.347Z,74.70
2023-04-29T04:55:07.841Z,74.50
2023-04-29T04:57:34.313Z,74.50
2023-04-29T05:00:04.602Z,74.40
2023-04-29T05:02:31.207Z,74.30
2023-04-29T05:04:57.800Z,74.00
2023-04-29T05:07:24.306Z,74.00
2023-04-29T05:09:50.915Z,74.20
2023-04-29T05:12:17.515Z,74.10
2023-04-29T05:14:43.983Z,74.20
2023-04-29T05:17:16.398Z,74.10
2023-04-29T05:19:42.891Z,74.20
2023-04-29T05:22:09.416Z,74.10
2023-04-29T05:24:35.914Z,74.40
2023-04-29T05:27:02.383Z,74.10
2023-04-29T05:29:28.866Z,73.90
2023-04-29T05:31:55.339Z,74.20
2023-04-29T05:34:21.819Z,74.10
2023-04-29T05:36:48.316Z,74.00
2023-04-29T05:39:14.792Z,73.80
2023-04-29T05:41:41.302Z,73.80
2023-04-29T05:44:07.778Z,73.50
2023-04-29T05:46:34.330Z,73.50
2023-04-29T05:49:00.842Z,73.80
2023-04-29T05:51:27.343Z,73.80
2023-04-29T05:53:53.809Z,73.40
2023-04-29T05:56:20.306Z,73.60
2023-04-29T05:58:46.786Z,73.90
2023-04-29T06:01:16.440Z,73.80
2023-04-29T06:03:43.175Z,73.70
2023-04-29T06:06:09.878Z,73.60
2023-04-29T06:08:36.380Z,73.70
2023-04-29T06:11:02.858Z,74.10
2023-04-29T06:13:29.364Z,73.90
2023-04-29T06:15:55.898Z,73.80
2023-04-29T06:18:22.466Z,73.70
2023-04-29T06:20:48.952Z,73.70
2023-04-29T06:23:15.416Z,73.60
2023-04-29T06:25:41.891Z,73.60
2023-04-29T06:28:08.398Z,73.80
2023-04-29T06:30:34.894Z,73.70
2023-04-29T06:33:01.443Z,73.70
2023-04-29T06:35:27.954Z,73.60
2023-04-29T06:37:54.431Z,73.80
2023-04-29T06:40:20.941Z,73.40
2023-04-29T06:42:47.431Z,73.50
2023-04-29T06:45:13.914Z,73.50
2023-04-29T06:47:40.430Z,73.20
2023-04-29T06:50:06.966Z,73.20
2023-04-29T06:52:33.502Z,73.20
2023-04-29T06:55:00.003Z,73.20
2023-04-29T06:57:26.490Z,73.60
2023-04-29T06:59:53.210Z,73.50
2023-04-29T07:02:19.858Z,73.50
2023-04-29T07:04:46.434Z,73.00
2023-04-29T07:07:12.959Z,73.00
2023-04-29T07:09:39.442Z,73.00
2023-04-29T07:12:05.943Z,72.80
2023-04-29T07:14:32.410Z,72.50
2023-04-29T07:16:58.937Z,73.10
2023-04-29T07:19:25.441Z,73.10
2023-04-29T07:21:51.978Z,73.40
2023-04-29T07:24:18.509Z,72.90
2023-04-29T07:26:45.016Z,73.20
2023-04-29T07:29:11.516Z,72.80
2023-04-29T07:31:38.582Z,72.60
2023-04-29T07:34:05.151Z,72.80
2023-04-29T07:36:31.638Z,72.70
2023-04-29T07:38:58.130Z,72.50
2023-04-29T07:41:24.604Z,72.70
2023-04-29T07:43:51.084Z,72.60
2023-04-29T07:46:17.612Z,72.50
2023-04-29T07:48:44.106Z,72.50
2023-04-29T07:51:10.601Z,72.60
2023-04-29T07:53:37.101Z,72.80
2023-04-29T07:56:03.640Z,72.80
2023-04-29T07:58:30.097Z,72.80
2023-04-29T08:00:56.579Z,72.40
2023-04-29T08:03:23.272Z,72.40
2023-04-29T08:05:49.946Z,72.40
2023-04-29T08:08:16.468Z,72.20
2023-04-29T08:10:42.937Z,72.20
2023-04-29T08:13:09.459Z,72.30
2023-04-29T08:15:35.946Z,72.20
2023-04-29T08:18:02.486Z,72.00
2023-04-29T08:20:28.989Z,71.80
2023-04-29T08:22:55.469Z,72.20
2023-04-29T08:25:21.952Z,72.20
2023-04-29T08:27:48.448Z,71.80
2023-04-29T08:30:14.924Z,71.30
2023-04-29T08:32:41.494Z,71.40
2023-04-29T08:35:08.054Z,71.40
2023-04-29T08:37:34.540Z,72.00
2023-04-29T08:40:01.010Z,72.20
2023-04-29T08:42:27.484Z,72.10
2023-04-29T08:44:54.172Z,71.80
2023-04-29T08:47:20.966Z,71.90
2023-04-29T08:49:47.524Z,71.80
2023-04-29T08:52:13.976Z,71.70
2023-04-29T08:54:40.457Z,71.60
2023-04-29T08:57:06.934Z,71.80
2023-04-29T08:59:33.443Z,71.90
2023-04-29T09:01:59.927Z,71.50
2023-04-29T09:04:26.449Z,71.70
2023-04-29T09:06:52.967Z,71.80
2023-04-29T09:09:20.829Z,71.80
2023-04-29T09:11:47.566Z,72.00
2023-04-29T09:14:14.065Z,71.90
2023-04-29T09:16:40.568Z,71.70
2023-04-29T09:19:07.093Z,72.00
2023-04-29T09:21:33.572Z,72.20
2023-04-29T09:24:00.062Z,71.50
2023-04-29T09:26:26.537Z,71.10
2023-04-29T09:28:53.016Z,71.40
2023-04-29T09:31:19.539Z,71.60
2023-04-29T09:33:46.068Z,71.80
2023-04-29T09:36:12.543Z,71.90
2023-04-29T09:38:39.041Z,71.60
2023-04-29T09:41:05.513Z,71.40
2023-04-29T09:43:32.007Z,71.60
2023-04-29T09:45:58.508Z,71.30
2023-04-29T09:48:24.970Z,71.20
2023-04-29T09:50:51.459Z,71.30
2023-04-29T09:53:17.918Z,71.00
2023-04-29T09:55:44.648Z,70.90
2023-04-29T09:58:11.137Z,71.20
2023-04-29T10:00:37.619Z,71.50
2023-04-29T10:03:04.650Z,71.30
2023-04-29T10:05:31.265Z,71.40
2023-04-29T10:07:57.742Z,72.00
2023-04-29T10:10:24.231Z,72.50
2023-04-29T10:12:50.694Z,72.40
2023-04-29T10:15:17.181Z,71.50
2023-04-29T10:17:43.641Z,71.40
2023-04-29T10:20:10.100Z,71.40
2023-04-29T10:22:36.556Z,71.70
2023-04-29T10:25:04.755Z,71.40
2023-04-29T10:27:31.267Z,71.70
2023-04-29T10:29:57.753Z,71.30
2023-04-29T10:32:24.253Z,71.00
2023-04-29T10:34:50.935Z,71.00
2023-04-29T10:37:17.521Z,71.10
2023-04-29T10:39:43.999Z,71.60
2023-04-29T10:42:10.454Z,71.30
2023-04-29T10:44:36.921Z,71.40
2023-04-29T10:47:03.586Z,71.40
2023-04-29T10:49:30.178Z,71.50
2023-04-29T10:51:56.635Z,72.00
2023-04-29T10:54:23.108Z,71.60
2023-04-29T10:56:50.647Z,71.00
2023-04-29T10:59:17.160Z,71.50
2023-04-29T11:01:43.688Z,71.90
2023-04-29T11:04:10.254Z,71.50
2023-04-29T11:06:36.805Z,71.50
2023-04-29T11:09:03.315Z,71.10
2023-04-29T11:11:29.788Z,70.90
2023-04-29T11:13:56.318Z,70.70
2023-04-29T11:16:22.826Z,71.00
2023-04-29T11:18:49.332Z,71.30
2023-04-29T11:21:15.840Z,71.40
2023-04-29T11:23:42.358Z,71.00
2023-04-29T11:26:08.865Z,71.40
2023-04-29T11:28:35.351Z,71.70
2023-04-29T11:31:01.846Z,71.80
2023-04-29T11:33:28.416Z,71.10
2023-04-29T11:35:54.964Z,71.00
2023-04-29T11:38:21.440Z,71.10
2023-04-29T11:40:47.920Z,71.00
2023-04-29T11:43:14.397Z,70.70
2023-04-29T11:45:40.939Z,70.40
2023-04-29T11:48:07.477Z,70.20
2023-04-29T11:50:34.006Z,70.80
2023-04-29T11:53:00.493Z,71.30
2023-04-29T11:55:26.967Z,71.50
2023-04-29T11:57:53.451Z,71.20
2023-04-29T12:00:19.925Z,70.90
2023-04-29T12:02:46.824Z,70.10
2023-04-29T12:05:14.055Z,70.20
2023-04-29T12:07:40.827Z,70.60
2023-04-29T12:10:07.391Z,70.90
2023-04-29T12:12:33.913Z,70.70
2023-04-29T12:15:00.377Z,70.70
2023-04-29T12:17:26.901Z,70.70
2023-04-29T12:19:53.445Z,70.60
2023-04-29T12:22:19.941Z,70.80
2023-04-29T12:24:46.418Z,70.60
2023-04-29T12:27:12.884Z,70.50
2023-04-29T12:29:39.369Z,70.50
2023-04-29T12:32:05.850Z,70.20
2023-04-29T12:34:32.337Z,70.90
2023-04-29T12:36:58.806Z,70.50
2023-04-29T12:39:25.289Z,70.60
2023-04-29T12:41:51.780Z,70.20
2023-04-29T12:44:18.273Z,70.20
2023-04-29T12:46:44.815Z,69.40
2023-04-29T12:49:16.770Z,69.00
2023-04-29T12:51:43.234Z,69.30
2023-04-29T12:54:09.733Z,69.00
2023-04-29T12:56:36.224Z,68.40
2023-04-29T12:59:02.725Z,68.60
2023-04-29T13:01:29.278Z,68.60
2023-04-29T13:03:55.938Z,69.00
2023-04-29T13:06:22.512Z,68.90
2023-04-29T13:08:48.996Z,68.20
2023-04-29T13:11:15.481Z,68.40
2023-04-29T13:13:41.960Z,66.90
2023-04-29T13:16:08.518Z,67.40
2023-04-29T13:18:36.452Z,66.10
2023-04-29T13:21:03.089Z,67.20
2023-04-29T13:23:29.585Z,67.30
2023-04-29T13:25:56.073Z,67.80
2023-04-29T13:28:22.574Z,68.30
2023-04-29T13:30:49.051Z,68.70
2023-04-29T13:33:15.560Z,67.20
2023-04-29T13:35:42.192Z,67.90
2023-04-29T13:38:08.726Z,68.40
2023-04-29T13:40:39.395Z,68.40
2023-04-29T13:43:09.842Z,68.20
2023-04-29T13:45:39.880Z,68.30
2023-04-29T13:48:26.072Z,68.30
2023-04-29T13:53:56.750Z,68.20
2023-04-29T13:59:30.565Z,67.10
2023-04-29T14:02:14.706Z,67.50
2023-04-29T14:04:13.904Z,67.00
2023-04-29T14:06:40.480Z,67.60
2023-04-29T14:09:07.004Z,67.60
2023-04-29T14:11:33.499Z,66.90
2023-04-29T14:13:59.975Z,67.60
2023-04-29T14:16:26.492Z,67.30
2023-04-29T14:18:53.036Z,67.40
2023-04-29T14:21:19.524Z,67.60
2023-04-29T14:23:45.998Z,67.90
2023-04-29T14:26:27.331Z,67.10
2023-04-29T14:28:55.072Z,66.50
2023-04-29T14:31:21.602Z,67.00
2023-04-29T14:33:48.146Z,67.40
2023-04-29T14:36:14.616Z,67.00
2023-04-29T14:38:41.098Z,66.90
2023-04-29T14:41:07.577Z,67.40
2023-04-29T14:43:34.046Z,67.00
2023-04-29T14:46:00.667Z,67.00
2023-04-29T14:48:27.186Z,67.00
2023-04-29T14:50:53.661Z,66.80
2023-04-29T14:53:20.151Z,67.20
2023-04-29T14:55:46.691Z,66.30
2023-04-29T14:58:13.168Z,66.60
2023-04-29T15:00:39.668Z,66.90
2023-04-29T15:03:06.229Z,66.90
2023-04-29T15:05:32.769Z,66.20
2023-04-29T15:07:59.247Z,66.40
2023-04-29T15:10:25.756Z,66.10
2023-04-29T15:12:52.257Z,66.40
2023-04-29T15:15:18.746Z,66.20
2023-04-29T15:17:45.310Z,66.10
2023-04-29T15:20:11.865Z,66.50
2023-04-29T15:22:38.355Z,66.30
2023-04-29T15:25:04.840Z,65.40
2023-04-29T15:27:31.307Z,65.60
2023-04-29T15:29:57.799Z,66.10
2023-04-29T15:32:24.351Z,66.20
2023-04-29T15:34:50.903Z,66.20
2023-04-29T15:37:17.358Z,65.70
2023-04-29T15:39:43.861Z,66.10
2023-04-29T15:42:10.328Z,66.10
2023-04-29T15:44:36.848Z,65.70
2023-04-29T15:47:03.327Z,65.00
2023-04-29T15:49:29.826Z,66.20
2023-04-29T15:51:56.295Z,66.40
2023-04-29T15:54:22.801Z,66.20
2023-04-29T15:56:49.280Z,66.30
2023-04-29T15:59:15.770Z,66.20
2023-04-29T16:01:42.327Z,66.00
2023-04-29T16:04:09.062Z,65.40
2023-04-29T16:06:35.635Z,66.00
2023-04-29T16:09:02.172Z,64.60
2023-04-29T16:11:28.653Z,65.30
2023-04-29T16:13:55.137Z,64.50
2023-04-29T16:16:21.675Z,65.00
2023-04-29T16:18:48.234Z,65.90
2023-04-29T16:21:14.703Z,65.90
2023-04-29T16:23:41.204Z,65.80
2023-04-29T16:26:07.684Z,65.80
2023-04-29T16:28:34.152Z,65.70
2023-04-29T16:31:00.774Z,64.20
2023-04-29T16:33:27.321Z,64.30
2023-04-29T16:35:53.811Z,64.10
2023-04-29T16:38:20.272Z,64.70
2023-04-29T16:40:47.831Z,64.60
2023-04-29T16:43:15.941Z,65.00
2023-04-29T16:45:42.427Z,65.80
2023-04-29T16:48:08.895Z,64.60
2023-04-29T16:50:35.387Z,64.30
2023-04-29T16:53:01.875Z,66.00
2023-04-29T16:55:28.363Z,65.90
2023-04-29T16:57:54.867Z,65.40
2023-04-29T17:00:21.345Z,65.60
2023-04-29T17:02:49.734Z,65.60
2023-04-29T17:05:17.539Z,65.70
2023-04-29T17:07:44.004Z,64.90
2023-04-29T17:10:10.509Z,65.70
2023-04-29T17:12:36.977Z,65.70
2023-04-29T17:15:03.516Z,66.00
2023-04-29T17:17:29.993Z,65.10
2023-04-29T17:19:56.930Z,64.90
2023-04-29T17:22:23.596Z,65.40
2023-04-29T17:24:50.081Z,65.20
2023-04-29T17:27:16.565Z,65.80
2023-04-29T17:29:43.052Z,65.40
2023-04-29T17:32:09.560Z,65.80
2023-04-29T17:34:36.171Z,65.60
2023-04-29T17:37:02.642Z,65.50
2023-04-29T17:39:29.136Z,65.10
2023-04-29T17:41:55.623Z,65.60
2023-04-29T17:44:23.558Z,65.70
2023-04-29T17:46:50.278Z,65.90
2023-04-29T17:49:16.773Z,65.60
2023-04-29T17:51:43.248Z,64.60
2023-04-29T17:54:09.754Z,65.20
2023-04-29T17:56:36.259Z,64.90
2023-04-29T17:59:02.756Z,65.30
2023-04-29T18:01:29.220Z,65.50
2023-04-29T18:03:55.786Z,65.70
2023-04-29T18:06:22.323Z,64.70
2023-04-29T18:08:48.848Z,65.30
2023-04-29T18:11:15.355Z,65.50
2023-04-29T18:13:41.860Z,65.40
2023-04-29T18:16:08.362Z,65.50
2023-04-29T18:18:34.891Z,65.50
2023-04-29T18:21:01.368Z,65.70
2023-04-29T18:23:27.849Z,65.50
2023-04-29T18:25:54.427Z,65.40
2023-04-29T18:28:25.163Z,65.10
2023-04-29T18:30:52.159Z,65.30
2023-04-29T18:33:18.825Z,65.40
2023-04-29T18:35:45.368Z,65.30
2023-04-29T18:38:11.822Z,65.50
2023-04-29T18:40:38.304Z,65.30
2023-04-29T18:43:04.789Z,65.40
2023-04-29T18:45:31.272Z,65.50
2023-04-29T18:47:57.782Z,65.20
2023-04-29T18:50:24.332Z,65.30
2023-04-29T18:52:50.834Z,65.30
2023-04-29T18:55:17.308Z,65.20
2023-04-29T18:57:43.788Z,65.30
2023-04-29T19:00:10.279Z,65.30
2023-04-29T19:02:36.788Z,65.20
2023-04-29T19:05:03.341Z,65.00
2023-04-29T19:07:29.847Z,66.10
2023-04-29T19:09:56.642Z,65.50
2023-04-29T19:12:23.376Z,64.40
2023-04-29T19:14:49.861Z,65.10
2023-04-29T19:17:16.345Z,64.60
2023-04-29T19:19:42.838Z,65.40
2023-04-29T19:22:09.303Z,65.40
2023-04-29T19:24:35.812Z,65.10
2023-04-29T19:27:02.280Z,65.10
2023-04-29T19:29:28.779Z,65.10
2023-04-29T19:31:55.256Z,65.20
2023-04-29T19:34:21.749Z,65.30
2023-04-29T19:36:48.227Z,65.40
2023-04-29T19:39:14.763Z,65.40
2023-04-29T19:41:41.266Z,65.40
2023-04-29T19:44:07.770Z,65.20
2023-04-29T19:46:34.335Z,65.30
2023-04-29T19:49:00.850Z,65.30
2023-04-29T19:51:27.300Z,65.20
2023-04-29T19:53:53.775Z,65.30
2023-04-29T19:56:20.248Z,65.30
2023-04-29T19:58:46.708Z,65.10
2023-04-29T20:01:13.246Z,65.10
2023-04-29T20:03:39.757Z,65.20
2023-04-29T20:06:06.269Z,65.20
2023-04-29T20:08:32.762Z,65.10
2023-04-29T20:10:59.250Z,65.20
2023-04-29T20:13:25.718Z,65.90
2023-04-29T20:15:52.188Z,65.20
2023-04-29T20:18:18.666Z,65.30
2023-04-29T20:20:45.153Z,65.30
2023-04-29T20:23:11.642Z,65.20
2023-04-29T20:25:38.121Z,65.30
2023-04-29T20:28:04.596Z,65.10
2023-04-29T20:30:31.094Z,65.30
2023-04-29T20:32:57.619Z,65.20
2023-04-29T20:35:24.142Z,65.10
2023-04-29T20:37:50.615Z,65.00
2023-04-29T20:40:17.100Z,65.00
2023-04-29T20:42:43.573Z,65.00
2023-04-29T20:45:10.054Z,64.90
2023-04-29T20:47:36.560Z,65.00
2023-04-29T20:50:03.107Z,64.90
2023-04-29T20:52:29.568Z,65.00
2023-04-29T20:54:56.047Z,65.30
2023-04-29T20:57:22.520Z,65.10
2023-04-29T20:59:49.021Z,65.00
2023-04-29T21:02:15.511Z,65.20
2023-04-29T21:04:42.070Z,65.20
2023-04-29T21:07:08.584Z,65.00
2023-04-29T21:09:35.054Z,65.10
2023-04-29T21:12:01.521Z,65.00
2023-04-29T21:14:29.166Z,65.00
2023-04-29T21:16:55.646Z,65.00
2023-04-29T21:19:22.119Z,65.00
2023-04-29T21:21:48.597Z,65.00
2023-04-29T21:24:15.083Z,64.90
2023-04-29T21:26:41.576Z,65.00
2023-04-29T21:29:08.051Z,64.90
2023-04-29T21:31:34.552Z,65.00
2023-04-29T21:34:01.073Z,65.00
2023-04-29T21:36:27.561Z,64.90
2023-04-29T21:38:54.035Z,64.90
2023-04-29T21:41:23.221Z,65.00
2023-04-29T21:43:49.700Z,65.00
2023-04-29T21:46:16.207Z,64.90
2023-04-29T21:48:42.709Z,64.80
2023-04-29T21:51:09.183Z,64.80
2023-04-29T21:53:35.672Z,64.90
2023-04-29T21:56:02.195Z,64.80
2023-04-29T21:58:28.657Z,64.70
2023-04-29T22:00:55.141Z,64.70
2023-04-29T22:03:23.214Z,64.60
2023-04-29T22:05:49.749Z,64.80
2023-04-29T22:08:16.229Z,64.70
2023-04-29T22:10:42.752Z,64.60
2023-04-29T22:13:09.231Z,64.80
2023-04-29T22:15:35.789Z,64.80
2023-04-29T22:18:02.313Z,64.70
2023-04-29T22:20:28.893Z,64.60
2023-04-29T22:22:55.367Z,64.40
2023-04-29T22:25:22.111Z,64.40
2023-04-29T22:27:48.680Z,64.40
2023-04-29T22:30:15.141Z,64.40
2023-04-29T22:32:41.642Z,64.40
2023-04-29T22:35:08.120Z,64.40
2023-04-29T22:37:34.612Z,64.40
2023-04-29T22:40:01.102Z,64.20
2023-04-29T22:42:27.589Z,64.40
2023-04-29T22:44:54.088Z,64.30
2023-04-29T22:47:20.567Z,64.40
2023-04-29T22:49:47.041Z,64.40
2023-04-29T22:52:17.274Z,64.40
2023-04-29T22:54:43.746Z,64.10
2023-04-29T22:57:10.264Z,64.20
2023-04-29T22:59:36.742Z,64.00
2023-04-29T23:02:03.218Z,64.10
2023-04-29T23:04:29.753Z,64.20
2023-04-29T23:06:56.273Z,64.30
2023-04-29T23:09:22.748Z,64.20
2023-04-29T23:11:49.224Z,64.10
2023-04-29T23:14:15.726Z,64.30
2023-04-29T23:16:42.213Z,63.70
2023-04-29T23:19:08.691Z,63.80
2023-04-29T23:21:35.180Z,63.90
2023-04-29T23:24:01.663Z,63.60
2023-04-29T23:26:28.177Z,63.80
2023-04-29T23:28:54.646Z,63.80
2023-04-29T23:31:21.170Z,64.00
2023-04-29T23:33:47.688Z,64.20
2023-04-29T23:36:14.146Z,64.00
2023-04-29T23:38:40.645Z,64.10
2023-04-29T23:41:07.142Z,63.80
2023-04-29T23:43:33.665Z,64.10
2023-04-29T23:46:00.197Z,64.40
2023-04-29T23:48:26.699Z,64.00
2023-04-29T23:50:53.164Z,64.20
2023-04-29T23:53:19.634Z,64.00
2023-04-29T23:55:46.114Z,63.90
2023-04-29T23:58:12.643Z,63.80
